Time;durP1;ratioP1;P1;durP2;ratioP2;P2;SDS_P1;SDS_P2;PMS_P1;PMS_P2;Temp;Humidity;BMP_temperature;BMP_pressure;BME280_temperature;BME280_humidity;BME280_pressure;Samples;Min_cycle;Max_cycle;Signal;HPM_P1;HPM_P2
2023/01/27 00:00:27;;;;;;;;;;;;;;;10.28;37.17;99108.81;4484015;31;33196;-83
2023/01/27 00:02:55;;;;;;;;;;;;;;;10.37;37.04;99108.06;4484397;32;34200;-81
2023/01/27 00:05:23;;;;;;;;;;;;;;;10.31;37.23;99106.25;4484306;32;35126;-85
2023/01/27 00:07:50;;;;;;;;;;;;;;;10.58;36.76;99110.91;4484334;32;33780;-84
2023/01/27 00:10:18;;;;;;;;;;;;;;;10.63;36.91;99101.47;4487578;31;33406;-85
2023/01/27 00:15:32;;;;;;;;;;;;;;;10.74;36.76;99101.59;4499923;31;34355;-85
2023/01/27 00:17:59;;;;;;;;;;;;;;;10.95;36.74;99099.22;4484894;31;34991;-83
2023/01/27 00:26:01;;;;;;;;;;;;;;;11.19;36.64;99098.59;4486983;31;34471;-85
2023/01/27 00:28:30;;;;;;;;;;;;;;;11.21;36.79;99090.78;4471586;31;34413;-85
2023/01/27 00:30:57;;;;;;;;;;;;;;;11.29;36.85;99094.34;4484242;32;33478;-83
2023/01/27 00:33:28;;;;;;;;;;;;;;;11.32;36.93;99088.31;4484727;31;34057;-85
2023/01/27 00:36:03;;;;;;;;;;;;;;;11.28;36.89;99081.34;4487378;31;34472;-83
2023/01/27 00:38:32;;;;;;;;;;;;;;;11.08;37.29;99094.16;4489916;31;33626;-84
2023/01/27 00:41:18;;;;;;;;;;;;;;;11.00;37.45;99088.88;4486525;31;34131;-84
2023/01/27 00:43:46;;;;;;;;;;;;;;;11.08;37.14;99095.00;4477339;32;34215;-82
2023/01/27 00:46:14;;;;;;;;;;;;;;;11.11;37.02;99100.25;4483553;31;34109;-78
2023/01/27 00:48:41;;;;;;;;;;;;;;;10.90;37.38;99094.81;4481095;31;34623;-84
2023/01/27 00:51:08;;;;;;;;;;;;;;;11.09;36.68;99096.75;4498828;31;33954;-81
2023/01/27 00:53:36;;;;;;;;;;;;;;;11.27;36.27;99095.19;4499664;31;34244;-79
2023/01/27 00:56:03;;;;;;;;;;;;;;;11.38;36.22;99088.38;4479398;32;34340;-85
2023/01/27 00:58:31;;;;;;;;;;;;;;;11.22;36.71;99087.37;4482952;31;33875;-84
2023/01/27 01:01:01;;;;;;;;;;;;;;;10.86;36.82;99093.06;4499726;31;33456;-84
2023/01/27 01:03:31;;;;;;;;;;;;;;;10.63;37.33;99100.59;4485240;31;33843;-80
2023/01/27 01:05:59;;;;;;;;;;;;;;;10.53;37.51;99098.72;4499658;31;34256;-83
2023/01/27 01:08:27;;;;;;;;;;;;;;;11.02;36.94;99088.88;4483514;31;33902;-84
2023/01/27 01:10:55;;;;;;;;;;;;;;;10.89;36.94;99101.75;4485583;31;32530;-83
2023/01/27 01:13:23;;;;;;;;;;;;;;;10.44;37.88;99094.31;4469349;32;34888;-82
2023/01/27 01:15:50;;;;;;;;;;;;;;;11.18;36.44;99091.66;4484057;32;34369;-82
2023/01/27 01:18:17;;;;;;;;;;;;;;;10.43;37.37;99097.78;4483773;31;33655;-84
2023/01/27 01:20:45;;;;;;;;;;;;;;;10.62;37.08;99093.69;4483872;32;33663;-81
2023/01/27 01:23:13;;;;;;;;;;;;;;;10.44;36.69;99091.72;4483983;32;34023;-85
2023/01/27 01:25:41;;;;;;;;;;;;;;;10.55;36.36;99086.69;4483139;31;34293;-84
2023/01/27 01:28:09;;;;;;;;;;;;;;;9.43;37.70;99090.25;4483320;32;35113;-84
2023/01/27 01:30:36;;;;;;;;;;;;;;;8.67;38.20;99093.25;4469727;32;33310;-81
2023/01/27 01:33:04;;;;;;;;;;;;;;;8.78;38.44;99086.56;4485957;31;34961;-85
2023/01/27 01:35:36;;;;;;;;;;;;;;;9.22;37.73;99080.47;4493764;31;34094;-82
2023/01/27 01:38:03;;;;;;;;;;;;;;;9.89;36.65;99078.91;4482258;31;34235;-83
2023/01/27 01:40:30;;;;;;;;;;;;;;;9.63;37.11;99069.91;4487114;31;33537;-85
2023/01/27 01:42:59;;;;;;;;;;;;;;;10.28;36.32;99082.03;4477457;31;33695;-83
2023/01/27 01:45:32;;;;;;;;;;;;;;;10.20;35.90;99080.19;4491166;31;35297;-85
2023/01/27 01:48:05;;;;;;;;;;;;;;;10.45;35.76;99072.72;4496180;31;33827;-85
2023/01/27 01:50:32;;;;;;;;;;;;;;;10.74;36.02;99080.84;4481330;31;33034;-82
2023/01/27 01:52:59;;;;;;;;;;;;;;;10.69;36.22;99080.78;4485035;31;34758;-82
2023/01/27 01:55:27;;;;;;;;;;;;;;;10.45;36.69;99083.09;4489263;31;35254;-83
2023/01/27 01:57:54;;;;;;;;;;;;;;;10.59;36.62;99083.25;4487489;31;33920;-83
2023/01/27 02:00:21;;;;;;;;;;;;;;;10.76;36.42;99079.16;4483430;31;33408;-79
2023/01/27 02:02:48;;;;;;;;;;;;;;;10.57;36.11;99080.66;4495882;31;35176;-85
2023/01/27 02:05:16;;;;;;;;;;;;;;;10.77;36.11;99082.59;4492256;31;34262;-80
2023/01/27 02:07:56;;;;;;;;;;;;;;;10.58;36.59;99072.03;4473230;31;33368;-85
2023/01/27 02:10:24;;;;;;;;;;;;;;;10.74;36.40;99072.19;4482054;31;33126;-81
2023/01/27 02:12:51;;;;;;;;;;;;;;;10.93;36.27;99069.78;4483835;31;35224;-83
2023/01/27 02:15:20;;;;;;;;;;;;;;;10.92;36.43;99064.59;4491793;31;34017;-80
2023/01/27 02:17:48;;;;;;;;;;;;;;;10.37;37.26;99066.59;4478203;31;34391;-83
2023/01/27 02:20:30;;;;;;;;;;;;;;;10.66;36.61;99056.56;4497392;31;34151;-85
2023/01/27 02:23:00;;;;;;;;;;;;;;;10.92;36.42;99051.62;4480432;31;33983;-83
2023/01/27 02:25:28;;;;;;;;;;;;;;;10.44;37.24;99053.72;4490817;31;34122;-82
2023/01/27 02:27:55;;;;;;;;;;;;;;;10.68;36.95;99055.72;4486731;31;33840;-85
2023/01/27 02:30:23;;;;;;;;;;;;;;;10.62;37.19;99047.00;4493009;31;33862;-84
2023/01/27 02:32:50;;;;;;;;;;;;;;;10.83;36.77;99038.56;4479604;31;34133;-83
2023/01/27 02:35:24;;;;;;;;;;;;;;;10.71;37.15;99041.91;4490690;31;34325;-81
2023/01/27 02:37:53;;;;;;;;;;;;;;;10.85;37.12;99034.28;4483639;31;33989;-82
2023/01/27 02:40:20;;;;;;;;;;;;;;;10.93;36.84;99027.44;4469740;31;32780;-83
2023/01/27 02:42:48;;;;;;;;;;;;;;;10.84;37.10;99023.03;4476560;31;34253;-82
2023/01/27 02:45:15;;;;;;;;;;;;;;;10.81;37.24;99012.63;4489409;31;34270;-84
2023/01/27 02:47:42;;;;;;;;;;;;;;;10.59;37.60;99019.31;4486059;31;33475;-84
2023/01/27 02:50:10;;;;;;;;;;;;;;;10.88;36.95;99013.56;4484735;31;33043;-82
2023/01/27 02:52:37;;;;;;;;;;;;;;;10.73;36.88;99009.09;4473933;31;34287;-82
2023/01/27 02:55:05;;;;;;;;;;;;;;;10.57;36.98;99017.56;4491763;31;34357;-84
2023/01/27 02:57:32;;;;;;;;;;;;;;;10.70;36.88;99022.03;4483282;32;34467;-83
2023/01/27 03:00:02;;;;;;;;;;;;;;;10.62;37.01;99015.91;4484773;32;33796;-84
2023/01/27 03:02:29;;;;;;;;;;;;;;;10.67;36.86;99014.22;4483519;32;34746;-79
2023/01/27 03:04:56;;;;;;;;;;;;;;;10.66;36.93;99020.25;4489057;31;35211;-81
2023/01/27 03:07:24;;;;;;;;;;;;;;;10.58;36.87;99015.00;4492200;31;34133;-85
2023/01/27 03:09:53;;;;;;;;;;;;;;;10.69;36.84;99008.19;4484493;31;33447;-84
2023/01/27 03:12:21;;;;;;;;;;;;;;;10.74;36.60;99005.63;4484980;32;35028;-84
2023/01/27 03:20:23;;;;;;;;;;;;;;;10.60;36.41;98997.72;4488513;31;32827;-82
2023/01/27 03:22:50;;;;;;;;;;;;;;;10.54;36.64;99002.87;4493681;31;34867;-84
2023/01/27 03:25:18;;;;;;;;;;;;;;;10.27;36.97;98994.81;4491478;31;35207;-83
2023/01/27 03:27:46;;;;;;;;;;;;;;;10.33;37.03;99003.50;4489544;31;34264;-85
2023/01/27 03:30:14;;;;;;;;;;;;;;;10.40;36.57;98994.06;4484333;31;33738;-83
2023/01/27 03:32:45;;;;;;;;;;;;;;;10.45;36.45;98988.09;4483972;31;34192;-81
2023/01/27 03:35:14;;;;;;;;;;;;;;;10.45;36.48;98989.78;4489982;31;34468;-79
2023/01/27 03:46:17;;;;;;;;;;;;;;;10.42;36.13;98989.78;4492938;31;35343;-80
2023/01/27 03:48:49;;;;;;;;;;;;;;;10.52;36.31;98976.03;4492401;31;35032;-79
2023/01/27 03:51:17;;;;;;;;;;;;;;;10.37;36.63;98983.66;4490560;31;33615;-83
2023/01/27 03:53:44;;;;;;;;;;;;;;;10.51;36.46;98976.91;4479708;31;33862;-79
2023/01/27 03:56:11;;;;;;;;;;;;;;;10.42;36.59;98967.31;4497460;31;34330;-80
2023/01/27 03:58:39;;;;;;;;;;;;;;;10.36;36.70;98976.75;4495708;31;34202;-81
2023/01/27 04:01:10;;;;;;;;;;;;;;;10.42;36.45;98969.06;4493372;31;33963;-80
2023/01/27 04:09:11;;;;;;;;;;;;;;;10.63;35.62;98958.00;4484211;31;34243;-81
2023/01/27 04:11:54;;;;;;;;;;;;;;;10.48;36.00;98957.00;4476152;32;34181;-79
2023/01/27 04:14:27;;;;;;;;;;;;;;;10.40;36.35;98952.59;4489167;31;34384;-82
2023/01/27 04:16:56;;;;;;;;;;;;;;;10.55;36.05;98951.88;4483613;31;34502;-80
2023/01/27 04:19:24;;;;;;;;;;;;;;;10.61;35.84;98952.81;4495740;31;33722;-85
2023/01/27 04:21:52;;;;;;;;;;;;;;;10.28;36.54;98965.44;4469518;31;34180;-83
2023/01/27 04:24:22;;;;;;;;;;;;;;;10.41;36.47;98955.19;4498706;31;32670;-83
2023/01/27 04:27:00;;;;;;;;;;;;;;;10.67;35.84;98949.41;4488115;31;34240;-84
2023/01/27 04:29:28;;;;;;;;;;;;;;;10.32;36.27;98949.06;4469928;32;34194;-80
2023/01/27 04:31:56;;;;;;;;;;;;;;;10.47;36.25;98954.41;4483722;31;33337;-79
2023/01/27 04:34:24;;;;;;;;;;;;;;;10.50;36.27;98948.41;4498772;31;33917;-83
2023/01/27 04:36:52;;;;;;;;;;;;;;;10.27;36.67;98959.41;4483434;31;33701;-80
2023/01/27 04:39:19;;;;;;;;;;;;;;;10.29;36.39;98949.03;4490191;31;34307;-84
2023/01/27 04:41:47;;;;;;;;;;;;;;;10.21;36.20;98959.28;4487588;31;34377;-85
2023/01/27 04:44:15;;;;;;;;;;;;;;;10.19;36.29;98961.88;4488912;31;34194;-85
2023/01/27 04:46:42;;;;;;;;;;;;;;;9.99;36.51;98966.81;4478288;32;34342;-83
2023/01/27 04:49:10;;;;;;;;;;;;;;;9.92;36.64;98956.34;4475529;31;33845;-81
2023/01/27 04:51:37;;;;;;;;;;;;;;;10.10;36.50;98963.47;4486051;31;34571;-79
2023/01/27 04:54:05;;;;;;;;;;;;;;;9.71;37.14;98965.59;4497668;31;33937;-82
2023/01/27 04:56:36;;;;;;;;;;;;;;;9.85;36.91;98970.06;4499820;31;35132;-83
2023/01/27 04:59:04;;;;;;;;;;;;;;;9.96;36.64;98971.06;4474523;32;34929;-84
2023/01/27 05:01:32;;;;;;;;;;;;;;;9.98;36.80;98980.59;4483843;32;33529;-84
2023/01/27 05:03:59;;;;;;;;;;;;;;;9.84;36.89;98976.97;4496039;31;34888;-81
2023/01/27 05:06:26;;;;;;;;;;;;;;;9.79;36.73;98977.78;4488148;31;34138;-81
2023/01/27 05:08:54;;;;;;;;;;;;;;;9.80;36.79;98982.97;4489634;31;34081;-84
2023/01/27 05:11:21;;;;;;;;;;;;;;;9.86;36.66;98977.88;4492701;31;33032;-81
2023/01/27 05:13:48;;;;;;;;;;;;;;;9.95;36.57;98983.16;4487645;31;33655;-80
2023/01/27 05:16:15;;;;;;;;;;;;;;;9.89;36.74;98987.41;4497063;31;35268;-81
2023/01/27 05:18:43;;;;;;;;;;;;;;;9.89;36.52;98983.09;4488982;31;33973;-84
2023/01/27 05:21:11;;;;;;;;;;;;;;;9.62;37.30;98981.03;4483174;31;33858;-85
2023/01/27 05:23:39;;;;;;;;;;;;;;;9.92;36.67;98979.66;4492791;31;34321;-82
2023/01/27 05:26:08;;;;;;;;;;;;;;;10.19;35.94;98973.94;4483665;32;33206;-81
2023/01/27 05:28:35;;;;;;;;;;;;;;;9.81;36.69;98978.66;4472408;31;33940;-86
2023/01/27 05:31:08;;;;;;;;;;;;;;;9.62;37.29;98980.13;4480042;31;33695;-82
2023/01/27 05:33:36;;;;;;;;;;;;;;;9.47;37.37;98978.19;4477622;32;34759;-81
2023/01/27 05:36:04;;;;;;;;;;;;;;;9.57;37.29;98977.47;4469522;32;34286;-83
2023/01/27 05:38:31;;;;;;;;;;;;;;;9.73;36.77;98974.25;4483607;32;34008;-84
2023/01/27 05:41:00;;;;;;;;;;;;;;;9.52;37.15;98976.56;4485953;31;32657;-86
2023/01/27 05:43:29;;;;;;;;;;;;;;;9.40;37.26;98977.25;4492455;31;33994;-83
2023/01/27 05:46:00;;;;;;;;;;;;;;;8.91;37.69;98975.66;4493271;31;34036;-83
2023/01/27 05:48:27;;;;;;;;;;;;;;;9.23;37.36;98977.00;4490695;31;33412;-82
2023/01/27 05:50:56;;;;;;;;;;;;;;;9.20;37.27;98974.34;4483713;31;33754;-83
2023/01/27 05:53:23;;;;;;;;;;;;;;;9.44;36.91;98983.34;4478969;31;34742;-85
2023/01/27 05:55:51;;;;;;;;;;;;;;;9.50;36.87;98978.25;4483655;31;34368;-85
2023/01/27 05:58:18;;;;;;;;;;;;;;;9.47;37.03;98981.69;4483402;31;34555;-82
2023/01/27 06:00:45;;;;;;;;;;;;;;;9.48;36.97;98982.53;4497054;31;32897;-84
2023/01/27 06:03:13;;;;;;;;;;;;;;;9.27;36.99;98976.19;4484560;31;33988;-85
2023/01/27 06:05:54;;;;;;;;;;;;;;;9.53;36.50;98982.59;4485138;31;34483;-85
2023/01/27 06:08:24;;;;;;;;;;;;;;;8.85;37.61;98985.88;4498652;31;34106;-84
2023/01/27 06:10:52;;;;;;;;;;;;;;;8.47;38.38;98991.25;4483807;31;32981;-84
2023/01/27 06:13:20;;;;;;;;;;;;;;;8.68;38.19;98981.28;4481105;31;33873;-85
2023/01/27 06:15:48;;;;;;;;;;;;;;;8.84;38.15;98976.38;4488337;31;35326;-85
2023/01/27 06:18:15;;;;;;;;;;;;;;;9.02;37.85;98974.09;4498785;31;34258;-85
2023/01/27 06:20:43;;;;;;;;;;;;;;;8.61;38.34;98979.44;4498863;31;33605;-84
2023/01/27 06:23:11;;;;;;;;;;;;;;;7.96;39.42;98973.91;4499072;31;35051;-85
2023/01/27 06:25:39;;;;;;;;;;;;;;;8.28;38.71;98970.19;4499071;31;34789;-84
2023/01/27 06:28:06;;;;;;;;;;;;;;;8.36;38.72;98974.63;4493601;31;34913;-85
2023/01/27 06:30:35;;;;;;;;;;;;;;;8.72;38.03;98977.91;4483385;32;33855;-85
2023/01/27 06:33:03;;;;;;;;;;;;;;;8.84;38.09;98978.97;4481676;31;34731;-86
2023/01/27 06:35:31;;;;;;;;;;;;;;;8.90;37.75;98981.63;4481774;32;35260;-84
2023/01/27 06:37:59;;;;;;;;;;;;;;;8.84;38.19;98976.38;4482026;32;33671;-85
2023/01/27 06:40:26;;;;;;;;;;;;;;;9.06;38.28;98973.31;4469529;32;34018;-85
2023/01/27 06:42:54;;;;;;;;;;;;;;;9.01;38.40;98978.38;4468862;32;33831;-85
2023/01/27 06:45:21;;;;;;;;;;;;;;;9.31;38.04;98981.41;4468958;32;33782;-85
2023/01/27 06:47:55;;;;;;;;;;;;;;;9.24;37.39;98978.75;4469075;32;34303;-85
2023/01/27 06:50:23;;;;;;;;;;;;;;;9.26;37.38;98981.34;4483216;32;33466;-84
2023/01/27 06:52:51;;;;;;;;;;;;;;;9.27;37.36;98978.78;4469158;32;33756;-85
2023/01/27 06:55:18;;;;;;;;;;;;;;;9.40;37.30;98979.00;4483034;32;34289;-83
2023/01/27 06:57:49;;;;;;;;;;;;;;;9.00;37.51;98986.13;4469287;32;34572;-85
2023/01/27 07:00:16;;;;;;;;;;;;;;;8.88;37.04;98981.63;4483147;32;33268;-84
2023/01/27 07:02:44;;;;;;;;;;;;;;;8.74;36.89;98983.97;4482918;32;34543;-85
2023/01/27 07:05:12;;;;;;;;;;;;;;;8.21;37.15;98982.97;4483091;32;34274;-83
2023/01/27 07:07:39;;;;;;;;;;;;;;;8.43;36.97;98989.44;4482728;32;35135;-85
2023/01/27 07:10:07;;;;;;;;;;;;;;;8.28;36.87;98990.88;4482410;32;33588;-84
2023/01/27 07:12:36;;;;;;;;;;;;;;;7.08;38.71;98991.72;4482681;32;34253;-84
2023/01/27 07:15:07;;;;;;;;;;;;;;;7.45;38.40;98990.88;4482606;32;35364;-84
2023/01/27 07:17:35;;;;;;;;;;;;;;;6.92;39.25;98987.03;4482557;32;34364;-84
2023/01/27 07:20:02;;;;;;;;;;;;;;;7.42;38.25;98992.50;4468692;32;33048;-84
2023/01/27 07:22:30;;;;;;;;;;;;;;;7.41;38.32;98994.22;4482855;32;33844;-84
2023/01/27 07:24:57;;;;;;;;;;;;;;;7.73;38.15;98992.34;4482524;32;35283;-84
2023/01/27 07:27:24;;;;;;;;;;;;;;;7.93;37.58;99000.50;4482462;32;34139;-84
2023/01/27 07:29:52;;;;;;;;;;;;;;;8.02;37.00;98994.66;4468326;32;33355;-85
2023/01/27 07:32:19;;;;;;;;;;;;;;;7.80;37.38;98993.34;4482022;32;34937;-85
2023/01/27 07:34:46;;;;;;;;;;;;;;;7.78;37.60;99003.63;4482496;32;34820;-84
2023/01/27 07:37:13;;;;;;;;;;;;;;;7.37;37.90;98994.13;4482523;32;34295;-84
2023/01/27 07:39:41;;;;;;;;;;;;;;;7.91;37.48;98997.00;4482482;32;33316;-83
2023/01/27 07:42:09;;;;;;;;;;;;;;;6.40;40.06;99008.88;4482743;32;34235;-83
2023/01/27 07:44:36;;;;;;;;;;;;;;;7.59;38.27;99001.50;4483824;32;34741;-84
2023/01/27 07:47:04;;;;;;;;;;;;;;;7.78;37.92;98995.91;4484148;32;34817;-84
2023/01/27 07:49:31;;;;;;;;;;;;;;;8.34;37.29;98994.44;4470348;32;32905;-84
2023/01/27 07:51:58;;;;;;;;;;;;;;;7.70;37.95;98988.84;4484498;32;32859;-84
2023/01/27 07:54:26;;;;;;;;;;;;;;;8.52;36.81;98974.09;4484457;32;34231;-84
2023/01/27 07:56:53;;;;;;;;;;;;;;;8.98;35.96;98973.19;4484448;32;34674;-85
2023/01/27 07:59:20;;;;;;;;;;;;;;;8.25;37.28;98980.47;4484294;32;33304;-84
2023/01/27 08:01:47;;;;;;;;;;;;;;;8.68;36.71;98975.25;4484486;32;34716;-84
2023/01/27 08:04:15;;;;;;;;;;;;;;;8.81;36.77;98981.50;4484882;32;34072;-84
2023/01/27 08:06:43;;;;;;;;;;;;;;;7.86;38.99;98987.44;4484728;32;34454;-83
2023/01/27 08:09:10;;;;;;;;;;;;;;;8.29;37.92;98996.91;4484480;32;33378;-84
2023/01/27 08:11:39;;;;;;;;;;;;;;;6.74;40.66;98998.66;4484515;32;34981;-84
2023/01/27 08:14:07;;;;;;;;;;;;;;;7.95;38.52;98991.06;4484134;32;34490;-84
2023/01/27 08:16:34;;;;;;;;;;;;;;;8.35;38.03;98991.00;4484205;32;34312;-84
2023/01/27 08:19:01;;;;;;;;;;;;;;;8.07;39.02;98993.06;4484336;32;33527;-85
2023/01/27 08:21:31;;;;;;;;;;;;;;;8.11;38.63;98994.84;4484169;32;34332;-84
2023/01/27 08:24:01;;;;;;;;;;;;;;;8.85;37.28;98988.47;4484109;32;35241;-84
2023/01/27 08:26:29;;;;;;;;;;;;;;;9.12;36.66;98994.06;4484224;32;34179;-84
2023/01/27 08:28:56;;;;;;;;;;;;;;;9.09;36.04;98987.97;4483947;32;33293;-84
2023/01/27 08:31:23;;;;;;;;;;;;;;;8.56;36.57;98996.59;4483980;32;34135;-84
2023/01/27 08:33:52;;;;;;;;;;;;;;;8.64;36.64;98995.00;4484098;32;35345;-84
2023/01/27 08:36:19;;;;;;;;;;;;;;;8.28;37.40;98993.44;4469666;32;34290;-84
2023/01/27 08:38:48;;;;;;;;;;;;;;;8.35;37.57;99002.19;4470074;32;33494;-84
2023/01/27 08:41:20;;;;;;;;;;;;;;;8.02;38.18;98990.34;4484081;32;34139;-84
2023/01/27 08:43:47;;;;;;;;;;;;;;;8.26;37.81;98997.72;4483721;32;34110;-84
2023/01/27 08:46:15;;;;;;;;;;;;;;;8.13;38.26;98995.72;4484157;32;34029;-83
2023/01/27 08:48:42;;;;;;;;;;;;;;;8.23;38.25;98997.66;4484365;32;33561;-84
2023/01/27 08:51:11;;;;;;;;;;;;;;;9.18;36.90;98999.34;4484302;32;34202;-84
2023/01/27 08:53:38;;;;;;;;;;;;;;;8.64;38.46;99009.66;4469962;32;35038;-84
2023/01/27 08:56:07;;;;;;;;;;;;;;;9.07;37.09;99006.06;4469883;32;34043;-84
2023/01/27 08:58:34;;;;;;;;;;;;;;;9.42;36.40;99003.16;4484853;32;34252;-84
2023/01/27 09:01:02;;;;;;;;;;;;;;;8.98;37.28;99005.94;4484259;32;34325;-84
2023/01/27 09:03:30;;;;;;;;;;;;;;;9.32;36.45;99004.75;4484072;32;34322;-84
2023/01/27 09:05:57;;;;;;;;;;;;;;;9.32;36.90;99001.25;4485380;32;35506;-84
2023/01/27 09:08:24;;;;;;;;;;;;;;;9.10;37.90;99010.44;4471046;32;34107;-84
2023/01/27 09:10:52;;;;;;;;;;;;;;;9.32;37.46;99009.03;4469708;32;33986;-85
2023/01/27 09:13:21;;;;;;;;;;;;;;;9.33;37.30;99009.06;4483936;32;34292;-82
2023/01/27 09:15:51;;;;;;;;;;;;;;;9.10;37.96;99015.59;4483773;32;34178;-84
2023/01/27 09:18:19;;;;;;;;;;;;;;;9.29;37.77;99011.59;4483757;32;34770;-84
2023/01/27 09:20:46;;;;;;;;;;;;;;;7.77;40.76;99022.53;4469428;32;34543;-84
2023/01/27 09:23:13;;;;;;;;;;;;;;;8.75;39.08;99021.91;4483916;32;34984;-85
2023/01/27 09:25:41;;;;;;;;;;;;;;;8.95;38.35;99019.66;4483470;32;34839;-84
2023/01/27 09:28:15;;;;;;;;;;;;;;;9.02;38.34;99023.22;4483824;32;33306;-84
2023/01/27 09:30:44;;;;;;;;;;;;;;;9.07;37.74;99025.87;4484151;32;33656;-84
2023/01/27 09:33:12;;;;;;;;;;;;;;;8.99;37.19;99031.81;4483591;32;35116;-85
2023/01/27 09:35:47;;;;;;;;;;;;;;;9.43;36.06;99021.31;4483787;32;35063;-85
2023/01/27 09:38:15;;;;;;;;;;;;;;;9.61;35.48;99027.56;4469664;32;33153;-84
2023/01/27 09:40:46;;;;;;;;;;;;;;;8.31;36.02;99025.34;4469385;32;34905;-83
2023/01/27 09:43:23;;;;;;;;;;;;;;;7.98;36.65;99018.66;4469641;32;34069;-85
2023/01/27 09:46:09;;;;;;;;;;;;;;;8.35;36.90;99030.59;4469417;32;34549;-84
2023/01/27 09:48:40;;;;;;;;;;;;;;;7.18;39.39;99029.78;4483783;32;34058;-84
2023/01/27 09:51:26;;;;;;;;;;;;;;;7.73;39.00;99025.03;4483629;32;34311;-84
2023/01/27 09:54:19;;;;;;;;;;;;;;;7.26;40.31;99030.84;4483933;32;34529;-84
2023/01/27 09:57:05;;;;;;;;;;;;;;;6.48;42.12;99035.75;4454444;32;34135;-84
2023/01/27 09:59:37;;;;;;;;;;;;;;;7.59;39.60;99023.84;4483417;32;33556;-83
2023/01/27 10:02:14;;;;;;;;;;;;;;;7.28;40.29;99024.03;4469372;32;34330;-84
2023/01/27 10:04:48;;;;;;;;;;;;;;;7.70;39.31;99020.66;4483706;32;34228;-83
2023/01/27 10:07:15;;;;;;;;;;;;;;;7.50;39.91;99021.91;4469145;32;34202;-83
2023/01/27 10:09:48;;;;;;;;;;;;;;;7.66;38.80;99018.00;4483368;32;34111;-84
2023/01/27 10:12:20;;;;;;;;;;;;;;;7.01;40.94;99025.94;4483184;32;34284;-84
2023/01/27 10:15:01;;;;;;;;;;;;;;;7.44;40.17;99025.25;4469041;32;34320;-84
2023/01/27 10:17:47;;;;;;;;;;;;;;;7.27;40.91;99030.03;4468821;32;34220;-84
2023/01/27 10:20:34;;;;;;;;;;;;;;;6.56;41.66;99026.50;4483427;32;33108;-84
2023/01/27 10:23:28;;;;;;;;;;;;;;;7.52;39.95;99015.97;4483384;32;33850;-84
2023/01/27 10:26:08;;;;;;;;;;;;;;;7.52;40.91;99010.81;4453845;32;35118;-82
2023/01/27 10:28:35;;;;;;;;;;;;;;;7.67;40.59;99009.41;4469046;32;34387;-84
2023/01/27 10:31:14;;;;;;;;;;;;;;;8.07;39.86;99012.81;4469287;32;33761;-84
2023/01/27 10:33:42;;;;;;;;;;;;;;;6.21;43.02;99028.13;4483295;32;33663;-84
2023/01/27 10:36:13;;;;;;;;;;;;;;;6.09;44.02;99026.06;4483486;32;34673;-84
2023/01/27 10:38:40;;;;;;;;;;;;;;;6.28;43.91;99020.59;4482877;32;34889;-84
2023/01/27 10:41:14;;;;;;;;;;;;;;;5.97;45.54;99029.16;4468754;32;32867;-84
2023/01/27 10:43:47;;;;;;;;;;;;;;;5.99;45.06;99029.25;4468722;32;32739;-84
2023/01/27 10:46:16;;;;;;;;;;;;;;;7.61;42.50;99023.03;4482998;32;33706;-84
2023/01/27 10:48:45;;;;;;;;;;;;;;;7.31;43.05;99008.63;4482986;32;34870;-84
2023/01/27 10:51:32;;;;;;;;;;;;;;;6.73;43.57;99017.50;4482919;32;33866;-84
2023/01/27 10:54:01;;;;;;;;;;;;;;;7.55;42.62;99010.87;4482612;32;34681;-83
2023/01/27 10:56:28;;;;;;;;;;;;;;;7.33;43.61;99013.81;4468772;32;34222;-84
2023/01/27 10:59:13;;;;;;;;;;;;;;;6.86;44.69;99010.97;4483115;32;34569;-84
2023/01/27 11:02:00;;;;;;;;;;;;;;;7.38;43.53;99001.87;4482694;32;33198;-84
2023/01/27 11:04:46;;;;;;;;;;;;;;;7.52;43.72;99009.94;4482759;32;34276;-84
2023/01/27 11:07:18;;;;;;;;;;;;;;;7.51;44.03;99008.22;4482501;32;35270;-84
2023/01/27 11:09:56;;;;;;;;;;;;;;;7.92;43.64;99003.06;4468871;32;34448;-84
2023/01/27 11:12:33;;;;;;;;;;;;;;;8.19;43.10;99000.16;4482568;32;34098;-84
2023/01/27 11:15:21;;;;;;;;;;;;;;;7.60;44.25;98998.06;4468840;32;33624;-84
2023/01/27 11:17:52;;;;;;;;;;;;;;;8.35;43.20;98991.00;4469341;32;34553;-84
2023/01/27 11:20:36;;;;;;;;;;;;;;;8.28;42.88;98996.03;4470584;32;34473;-84
2023/01/27 11:23:34;;;;;;;;;;;;;;;8.73;42.07;98989.13;4470846;32;33857;-84
2023/01/27 11:26:23;;;;;;;;;;;;;;;8.41;43.21;98991.12;4468884;32;34912;-84
2023/01/27 11:28:52;;;;;;;;;;;;;;;8.44;43.59;98986.87;4484566;32;34411;-85
2023/01/27 11:31:38;;;;;;;;;;;;;;;7.51;45.54;98995.31;4470266;32;33808;-84
2023/01/27 11:34:24;;;;;;;;;;;;;;;8.49;43.30;98989.56;4484436;32;33474;-84
2023/01/27 11:36:51;;;;;;;;;;;;;;;8.87;43.09;98976.44;4484341;32;34060;-84
2023/01/27 11:39:19;;;;;;;;;;;;;;;7.69;45.79;98979.34;4484410;32;34499;-84
2023/01/27 11:41:47;;;;;;;;;;;;;;;8.19;44.91;98977.78;4470090;32;34790;-84
2023/01/27 11:44:24;;;;;;;;;;;;;;;8.39;44.98;98980.78;4484480;32;34198;-85
2023/01/27 11:46:51;;;;;;;;;;;;;;;8.02;45.58;98976.56;4470023;32;33883;-84
2023/01/27 11:49:20;;;;;;;;;;;;;;;8.34;44.71;98971.19;4484525;32;34514;-84
2023/01/27 11:51:48;;;;;;;;;;;;;;;7.69;46.27;98974.16;4484641;32;34078;-84
2023/01/27 11:54:15;;;;;;;;;;;;;;;7.76;46.42;98963.13;4484251;32;33507;-84
2023/01/27 11:56:43;;;;;;;;;;;;;;;7.99;46.29;98961.91;4484396;32;34063;-84
2023/01/27 11:59:13;;;;;;;;;;;;;;;7.94;46.41;98957.50;4470186;32;35250;-84
2023/01/27 12:01:43;;;;;;;;;;;;;;;7.40;47.75;98947.78;4470214;32;34438;-84
2023/01/27 12:04:19;;;;;;;;;;;;;;;7.83;46.49;98943.50;4484523;32;34236;-84
2023/01/27 12:06:47;;;;;;;;;;;;;;;8.10;46.24;98940.56;4470072;32;34437;-84
2023/01/27 12:09:41;;;;;;;;;;;;;;;7.12;47.59;98946.28;4470331;32;35761;-85
2023/01/27 12:12:10;;;;;;;;;;;;;;;6.61;49.09;98939.91;4480767;32;35146;-84
2023/01/27 12:14:37;;;;;;;;;;;;;;;6.29;48.72;98954.56;4484509;32;33665;-85
2023/01/27 12:17:05;;;;;;;;;;;;;;;6.35;49.62;98946.97;4484442;32;34036;-83
2023/01/27 12:19:36;;;;;;;;;;;;;;;6.60;49.80;98934.75;4469689;32;35099;-84
2023/01/27 12:22:23;;;;;;;;;;;;;;;7.73;45.59;98920.09;4470053;32;33635;-84
2023/01/27 12:24:51;;;;;;;;;;;;;;;6.69;48.73;98929.81;4484010;32;33313;-85
2023/01/27 12:27:20;;;;;;;;;;;;;;;5.78;50.47;98936.84;4469959;32;33957;-84
2023/01/27 12:29:54;;;;;;;;;;;;;;;6.07;49.14;98927.37;4456276;32;33783;-84
2023/01/27 12:32:33;;;;;;;;;;;;;;;6.31;49.56;98925.44;4469878;32;34613;-83
2023/01/27 12:35:00;;;;;;;;;;;;;;;6.68;48.63;98922.91;4469941;32;33066;-84
2023/01/27 12:37:31;;;;;;;;;;;;;;;5.51;50.59;98916.34;4483882;32;33998;-83
2023/01/27 12:40:01;;;;;;;;;;;;;;;5.19;51.93;98921.44;4469872;32;35207;-84
2023/01/27 12:42:33;;;;;;;;;;;;;;;5.70;50.85;98916.03;4470030;32;34332;-83
2023/01/27 12:45:10;;;;;;;;;;;;;;;6.04;49.21;98917.88;4484000;32;33907;-83
2023/01/27 12:47:37;;;;;;;;;;;;;;;5.91;49.96;98925.16;4469766;32;34201;-83
2023/01/27 12:50:19;;;;;;;;;;;;;;;5.95;49.45;98917.63;4483713;32;35139;-84
2023/01/27 12:53:12;;;;;;;;;;;;;;;6.27;49.37;98915.88;4483976;32;34265;-84
2023/01/27 12:55:41;;;;;;;;;;;;;;;5.82;49.74;98918.06;4480923;32;33538;-84
2023/01/27 12:58:27;;;;;;;;;;;;;;;6.21;49.07;98913.19;4469802;32;34901;-84
2023/01/27 13:00:56;;;;;;;;;;;;;;;5.93;49.04;98918.41;4484056;32;34169;-84
2023/01/27 13:03:23;;;;;;;;;;;;;;;6.25;48.34;98911.53;4483677;32;34940;-84
2023/01/27 13:05:51;;;;;;;;;;;;;;;6.41;48.72;98910.25;4469439;32;34384;-85
2023/01/27 13:08:18;;;;;;;;;;;;;;;6.84;48.53;98912.13;4469712;32;35080;-84
2023/01/27 13:10:50;;;;;;;;;;;;;;;6.07;50.52;98923.09;4483944;32;34745;-84
2023/01/27 13:13:18;;;;;;;;;;;;;;;6.69;48.20;98910.06;4469278;32;34949;-84
2023/01/27 13:16:03;;;;;;;;;;;;;;;6.37;49.66;98916.16;4469685;32;33581;-85
2023/01/27 13:18:35;;;;;;;;;;;;;;;6.41;50.03;98920.53;4469229;32;34181;-84
2023/01/27 13:21:15;;;;;;;;;;;;;;;5.76;51.48;98929.09;4484172;32;34172;-85
2023/01/27 13:23:42;;;;;;;;;;;;;;;7.13;48.63;98915.38;4469548;32;34995;-83
2023/01/27 13:26:12;;;;;;;;;;;;;;;7.54;47.85;98923.16;4469514;32;33288;-84
2023/01/27 13:28:42;;;;;;;;;;;;;;;6.78;49.29;98928.34;4469374;32;34129;-84
2023/01/27 13:31:32;;;;;;;;;;;;;;;6.68;49.52;98931.50;4470610;32;34267;-84
2023/01/27 13:34:02;;;;;;;;;;;;;;;5.41;53.42;98952.91;4469315;32;34070;-84
2023/01/27 13:36:35;;;;;;;;;;;;;;;6.93;49.42;98943.28;4483965;32;33148;-84